Time;durP1;ratioP1;P1;durP2;ratioP2;P2;SDS_P1;SDS_P2;PMS_P1;PMS_P2;Temp;Humidity;BMP_temperature;BMP_pressure;BME280_temperature;BME280_humidity;BME280_pressure;Samples;Min_cycle;Max_cycle;Signal;HPM_P1;HPM_P2
2022/09/06 08:34:54;;;;;;;;;6.75;5.00;;;;;26.39;44.39;101062.13;5035334;28;45267;-52
2022/09/06 08:37:19;;;;;;;;;7.50;5.25;;;;;26.39;44.13;101059.47;5059887;28;44681;-49
2022/09/06 08:39:45;;;;;;;;;5.25;4.25;;;;;26.41;44.11;101069.97;5059773;28;45571;-50
2022/09/06 08:42:11;;;;;;;;;6.00;5.00;;;;;26.41;44.39;101062.00;5062953;28;44972;-51
2022/09/06 08:44:41;;;;;;;;;5.25;5.25;;;;;26.42;44.06;101061.03;5063164;27;45080;-49
2022/09/06 08:47:20;;;;;;;;;5.75;5.00;;;;;26.42;43.67;101058.38;5062379;28;44639;-51
2022/09/06 08:50:06;;;;;;;;;5.50;4.25;;;;;26.42;43.95;101056.56;5062633;28;45088;-50
2022/09/06 08:52:50;;;;;;;;;5.75;4.25;;;;;26.43;43.92;101052.09;5055818;28;45518;-49
2022/09/06 08:55:46;;;;;;;;;6.50;4.00;;;;;26.43;43.60;101036.16;5052738;28;45354;-49
2022/09/06 08:58:31;;;;;;;;;5.50;4.00;;;;;26.44;43.53;101032.53;5044801;28;45929;-53
2022/09/06 09:01:01;;;;;;;;;4.25;4.25;;;;;26.43;43.88;101031.66;5053081;28;45323;-47
2022/09/06 09:03:38;;;;;;;;;5.00;5.00;;;;;26.44;44.06;101033.38;5047404;28;45323;-53
2022/09/06 09:06:06;;;;;;;;;5.50;5.50;;;;;26.44;43.86;101038.69;5046119;28;45338;-52
2022/09/06 09:08:41;;;;;;;;;3.50;3.50;;;;;26.46;43.52;101039.41;5038874;28;45456;-48
2022/09/06 09:11:15;;;;;;;;;4.50;4.00;;;;;26.46;43.78;101044.72;5040237;28;45297;-52
2022/09/06 09:13:53;;;;;;;;;4.75;4.50;;;;;26.47;43.91;101053.53;5042748;28;45418;-47
2022/09/06 09:16:19;;;;;;;;;5.25;4.75;;;;;26.47;43.43;101070.34;5044930;28;45794;-48
2022/09/06 09:18:49;;;;;;;;;4.50;4.50;;;;;26.47;43.57;101078.31;5040656;28;45358;-46
2022/09/06 09:21:19;;;;;;;;;6.00;4.50;;;;;26.48;43.59;101082.69;5041431;28;45779;-47
2022/09/06 09:23:57;;;;;;;;;6.00;5.00;;;;;26.49;43.63;101075.53;5054447;28;46028;-49
2022/09/06 09:26:26;;;;;;;;;6.00;6.00;;;;;26.49;43.26;101068.44;5043132;28;45300;-52
2022/09/06 09:29:10;;;;;;;;;4.00;4.00;;;;;26.49;43.37;101068.44;5045368;28;45338;-51
2022/09/06 09:31:40;;;;;;;;;6.50;5.50;;;;;26.51;43.38;101070.94;5057071;28;45538;-47
2022/09/06 09:34:11;;;;;;;;;3.75;3.75;;;;;26.51;43.74;101079.75;5038834;28;45422;-46
2022/09/06 09:36:37;;;;;;;;;3.50;3.50;;;;;26.52;43.21;101077.97;5036877;28;45486;-47
2022/09/06 09:39:09;;;;;;;;;3.75;3.75;;;;;26.52;43.37;101083.28;5036473;28;45338;-50
2022/09/06 09:41:37;;;;;;;;;3.25;3.25;;;;;26.52;43.27;101084.13;5038669;28;45215;-47
2022/09/06 09:44:26;;;;;;;;;5.25;4.75;;;;;26.52;43.38;101085.94;5037901;28;47081;-48
2022/09/06 09:46:52;;;;;;;;;3.75;3.75;;;;;26.51;43.43;101078.91;5035725;28;45295;-51
2022/09/06 09:49:21;;;;;;;;;7.00;5.00;;;;;26.52;43.39;101077.97;5042891;28;45183;-53
2022/09/06 09:52:11;;;;;;;;;5.25;3.75;;;;;26.49;43.45;101073.75;5054083;28;45344;-49
2022/09/06 09:54:43;;;;;;;;;7.25;5.75;;;;;26.50;43.78;101067.47;5046588;28;46220;-53
2022/09/06 09:57:12;;;;;;;;;4.25;4.25;;;;;26.48;43.21;101050.78;5043194;28;45286;-46
2022/09/06 09:59:47;;;;;;;;;4.50;4.50;;;;;26.49;43.31;101067.56;5047106;28;45227;-52
2022/09/06 10:02:24;;;;;;;;;3.00;3.00;;;;;26.48;43.39;101077.34;5045815;28;45268;-47
2022/09/06 10:04:52;;;;;;;;;4.25;4.25;;;;;26.46;43.51;101076.63;5039287;28;46548;-50
2022/09/06 10:07:22;;;;;;;;;4.25;4.25;;;;;26.46;43.28;101081.09;5048907;28;45677;-48
2022/09/06 10:09:56;;;;;;;;;5.25;5.25;;;;;26.46;43.22;101095.22;5049292;28;45286;-49
2022/09/06 10:12:37;;;;;;;;;3.50;3.25;;;;;26.46;43.41;101099.72;5039805;28;45562;-52
2022/09/06 10:15:05;;;;;;;;;4.50;3.00;;;;;26.45;43.16;101092.69;5041166;28;46263;-50
2022/09/06 10:17:49;;;;;;;;;4.00;4.00;;;;;26.45;43.33;101100.66;5044486;28;45327;-55
2022/09/06 10:20:15;;;;;;;;;4.50;4.00;;;;;26.44;43.13;101097.16;5044009;28;45450;-49
2022/09/06 10:23:08;;;;;;;;;5.50;4.00;;;;;26.46;42.93;101099.72;5040636;28;45470;-50
2022/09/06 10:25:44;;;;;;;;;4.00;4.00;;;;;26.45;43.28;101104.16;5040480;28;46229;-53
2022/09/06 10:28:28;;;;;;;;;5.00;4.50;;;;;26.45;43.49;101101.50;5040333;28;45367;-52
2022/09/06 10:31:31;;;;;;;;;3.25;3.25;;;;;26.46;43.65;101087.25;5041676;28;45410;-50
2022/09/06 10:34:24;;;;;;;;;3.00;2.75;;;;;26.48;43.03;101088.00;5049365;28;45253;-49
2022/09/06 10:37:14;;;;;;;;;3.25;3.25;;;;;26.47;43.66;101078.31;5038104;28;45303;-53
2022/09/06 10:40:01;;;;;;;;;4.00;4.00;;;;;26.45;43.52;101066.97;5038680;28;45327;-52
2022/09/06 10:42:47;;;;;;;;;4.25;4.25;;;;;26.46;43.59;101054.53;5038435;28;45437;-50
2022/09/06 10:45:32;;;;;;;;;5.00;4.00;;;;;26.45;43.17;101043.03;5038501;28;45240;-53
2022/09/06 10:48:06;;;;;;;;;5.75;3.00;;;;;26.45;43.37;101015.63;5050745;28;46234;-49
2022/09/06 10:50:41;;;;;;;;;4.75;4.75;;;;;26.44;43.47;101017.41;5040089;28;45884;-48
2022/09/06 10:53:26;;;;;;;;;5.00;3.50;;;;;26.44;43.09;101012.09;5039076;28;45397;-48
2022/09/06 10:56:03;;;;;;;;;3.00;3.00;;;;;26.44;43.46;101012.09;5040972;28;45268;-53
2022/09/06 10:58:33;;;;;;;;;5.00;5.00;;;;;26.44;43.60;101008.63;5046033;28;46402;-51
2022/09/06 11:00:58;;;;;;;;;4.50;3.50;;;;;26.43;43.81;101007.75;5041946;28;45409;-49
2022/09/06 11:03:36;;;;;;;;;4.00;4.00;;;;;26.43;43.15;101010.41;5038884;28;45391;-51
2022/09/06 11:06:10;;;;;;;;;4.00;3.75;;;;;26.43;43.47;101009.59;5038216;28;45429;-51
2022/09/06 11:08:46;;;;;;;;;4.25;4.25;;;;;26.43;43.53;101007.75;5038639;28;47448;-50
2022/09/06 11:11:26;;;;;;;;;5.75;5.75;;;;;26.44;43.34;101008.63;5044741;28;45050;-47
2022/09/06 11:13:51;;;;;;;;;3.00;3.00;;;;;26.44;43.68;100998.00;5043160;28;45338;-48
2022/09/06 11:16:27;;;;;;;;;5.00;4.00;;;;;26.44;43.62;100995.34;5039061;28;45319;-48
2022/09/06 11:19:10;;;;;;;;;5.00;5.00;;;;;26.44;43.48;101001.47;5038468;28;45370;-49
2022/09/06 11:22:00;;;;;;;;;5.00;3.25;;;;;26.44;43.33;100996.16;5039526;28;45411;-49
2022/09/06 11:24:28;;;;;;;;;3.00;3.00;;;;;26.43;43.63;100991.81;5054243;28;44740;-48
2022/09/06 11:27:03;;;;;;;;;4.00;4.00;;;;;26.44;43.62;100990.84;5047913;28;45233;-51
2022/09/06 11:29:32;;;;;;;;;4.00;4.00;;;;;26.44;43.56;100974.91;5038551;28;47126;-48
2022/09/06 11:32:02;;;;;;;;;5.00;4.50;;;;;26.44;43.47;100977.56;5038438;28;45321;-51
2022/09/06 11:34:32;;;;;;;;;5.25;5.00;;;;;26.44;43.75;100969.59;5038777;28;45274;-50
2022/09/06 11:37:00;;;;;;;;;4.75;4.25;;;;;26.46;43.62;100977.47;5036817;28;45430;-49
2022/09/06 11:39:35;;;;;;;;;8.75;5.75;;;;;26.46;43.40;100972.97;5037900;28;46679;-51
2022/09/06 11:42:05;;;;;;;;;5.25;5.25;;;;;26.49;43.28;100983.38;5039725;28;45355;-47
2022/09/06 11:44:51;;;;;;;;;4.50;4.50;;;;;26.50;43.43;100979.75;5038859;28;45355;-51
2022/09/06 11:47:36;;;;;;;;;4.50;4.50;;;;;26.50;43.15;100979.75;5042518;28;45354;-50
2022/09/06 11:50:52;;;;;;;;;4.50;4.50;;;;;26.50;43.60;100978.88;5047189;28;46181;-46
2022/09/06 11:53:18;;;;;;;;;5.25;5.00;;;;;26.53;43.38;100976.00;4979624;28;45517;-50
2022/09/06 11:55:49;;;;;;;;;4.00;4.00;;;;;26.53;43.76;100973.34;5032351;28;45350;-51
2022/09/06 11:58:28;;;;;;;;;5.00;3.50;;;;;26.54;43.32;100970.53;5042744;28;45743;-46
2022/09/06 12:01:12;;;;;;;;;5.00;4.00;;;;;26.56;43.04;100957.16;5055921;28;46499;-52
2022/09/06 12:03:47;;;;;;;;;3.50;3.00;;;;;26.55;43.25;100958.94;5043734;28;45395;-51
2022/09/06 12:06:30;;;;;;;;;3.25;3.25;;;;;26.58;43.54;100962.34;5037167;28;45724;-47
2022/09/06 12:08:57;;;;;;;;;6.00;4.75;;;;;26.59;43.03;100956.88;5038018;28;45379;-51
2022/09/06 12:11:44;;;;;;;;;3.25;3.25;;;;;26.60;43.10;100955.94;5039669;28;46764;-51
2022/09/06 12:14:32;;;;;;;;;4.00;4.00;;;;;26.60;43.58;100955.94;5042850;28;45750;-49
2022/09/06 12:16:57;;;;;;;;;4.25;4.25;;;;;26.61;43.57;100954.97;5045148;28;45445;-50
2022/09/06 12:20:06;;;;;;;;;5.25;3.75;;;;;26.63;43.49;100941.53;5042041;28;45546;-52
2022/09/06 12:22:32;;;;;;;;;5.00;4.00;;;;;26.62;43.18;100943.38;5018785;28;47520;-53
2022/09/06 12:25:03;;;;;;;;;4.25;4.25;;;;;26.64;43.33;100937.91;5026136;28;45740;-50
2022/09/06 12:27:30;;;;;;;;;2.75;2.50;;;;;26.64;43.06;100932.59;5027337;28;45155;-49
2022/09/06 12:30:00;;;;;;;;;5.25;5.25;;;;;26.64;43.18;100922.81;5025804;28;45373;-50
2022/09/06 12:32:40;;;;;;;;;3.75;3.75;;;;;26.65;43.45;100921.00;5022059;28;45504;-49
2022/09/06 12:35:13;;;;;;;;;3.75;3.75;;;;;26.65;43.44;100913.88;5024680;28;45367;-47
2022/09/06 12:37:57;;;;;;;;;5.25;5.25;;;;;26.66;43.37;100909.41;5038026;28;45244;-51
2022/09/06 12:40:25;;;;;;;;;3.75;3.75;;;;;26.66;42.82;100904.94;5038152;28;45288;-55
2022/09/06 12:42:52;;;;;;;;;4.00;4.00;;;;;26.66;43.30;100896.97;5043236;28;46253;-52
2022/09/06 12:45:20;;;;;;;;;3.00;3.00;;;;;26.66;43.18;100890.78;5042654;28;45021;-47
2022/09/06 12:47:47;;;;;;;;;4.50;4.50;;;;;26.67;43.19;100887.16;5037938;28;45386;-51
2022/09/06 12:50:20;;;;;;;;;3.75;3.00;;;;;26.66;43.18;100881.00;5035645;28;45437;-49
2022/09/06 12:52:47;;;;;;;;;2.25;2.25;;;;;26.67;42.84;100877.38;5035927;28;45460;-49
2022/09/06 12:55:17;;;;;;;;;4.50;4.00;;;;;26.67;42.94;100869.41;5041574;28;45214;-47
2022/09/06 12:57:48;;;;;;;;;6.50;5.50;;;;;26.67;42.99;100869.41;5050712;28;45338;-46
2022/09/06 13:00:14;;;;;;;;;4.50;4.50;;;;;26.68;43.04;100872.91;5054057;28;45557;-52
2022/09/06 13:02:50;;;;;;;;;5.00;4.00;;;;;26.68;42.97;100871.06;5043376;28;45313;-54
2022/09/06 13:05:16;;;;;;;;;6.00;4.25;;;;;26.68;43.22;100870.25;5046171;28;45723;-53
2022/09/06 13:07:46;;;;;;;;;3.25;3.25;;;;;26.67;43.26;100872.06;5048794;28;45416;-52
2022/09/06 13:10:17;;;;;;;;;3.50;3.50;;;;;26.68;42.71;100870.25;5045481;28;45241;-49
2022/09/06 13:12:49;;;;;;;;;4.00;4.00;;;;;26.68;43.09;100870.25;5039703;28;45499;-47
2022/09/06 13:15:27;;;;;;;;;4.00;4.00;;;;;26.68;42.97;100864.94;5037558;28;45243;-49
2022/09/06 13:18:21;;;;;;;;;3.25;3.25;;;;;26.68;42.66;100864.94;5041582;28;45391;-50
2022/09/06 13:20:58;;;;;;;;;3.00;3.00;;;;;26.68;43.30;100844.50;5032150;28;45505;-48
2022/09/06 13:23:24;;;;;;;;;4.00;4.00;;;;;26.68;43.44;100841.84;5038422;28;46004;-47
2022/09/06 13:25:53;;;;;;;;;6.25;5.00;;;;;26.68;43.25;100838.34;5054128;28;45346;-47
2022/09/06 13:28:37;;;;;;;;;3.00;3.00;;;;;26.69;43.45;100830.22;5047448;28;45248;-53
2022/09/06 13:31:04;;;;;;;;;4.00;3.75;;;;;26.68;43.15;100817.91;5038793;28;45370;-50
2022/09/06 13:33:30;;;;;;;;;5.25;4.75;;;;;26.69;42.85;100819.59;5039898;28;46698;-48
2022/09/06 13:36:11;;;;;;;;;4.00;4.00;;;;;26.70;42.77;100815.16;5042545;28;45708;-49
2022/09/06 13:38:36;;;;;;;;;3.25;3.25;;;;;26.69;43.27;100814.28;5040121;28;45259;-46
2022/09/06 13:41:03;;;;;;;;;6.75;4.00;;;;;26.69;43.23;100808.97;5044578;28;45220;-47
2022/09/06 13:43:32;;;;;;;;;3.00;3.00;;;;;26.70;43.28;100801.84;5041020;28;45274;-53
2022/09/06 13:46:05;;;;;;;;;6.00;4.25;;;;;26.69;42.83;100792.19;5043617;28;45337;-46
2022/09/06 13:48:31;;;;;;;;;4.75;4.00;;;;;26.70;42.84;100792.03;5045575;28;45206;-46
2022/09/06 13:50:57;;;;;;;;;4.00;4.00;;;;;26.70;42.78;100791.22;5044631;28;45331;-52
2022/09/06 13:53:23;;;;;;;;;4.00;4.00;;;;;26.69;42.99;100784.22;5040222;28;46849;-50
2022/09/06 13:55:48;;;;;;;;;4.25;3.00;;;;;26.69;42.77;100781.56;5039932;28;45429;-47
2022/09/06 13:58:14;;;;;;;;;4.50;4.25;;;;;26.69;42.71;100774.41;5039407;28;45279;-53
2022/09/06 14:00:40;;;;;;;;;4.25;3.25;;;;;26.70;42.53;100777.94;5041143;28;45628;-50
2022/09/06 14:03:06;;;;;;;;;5.25;4.50;;;;;26.69;43.00;100768.25;5042005;28;46339;-49
2022/09/06 14:05:34;;;;;;;;;5.25;3.25;;;;;26.68;42.87;100769.22;5040660;28;45186;-51
2022/09/06 14:08:00;;;;;;;;;5.00;5.00;;;;;26.69;42.83;100778.91;5046116;28;45231;-49
2022/09/06 14:10:25;;;;;;;;;5.75;3.25;;;;;26.68;42.67;100770.06;5041968;28;45236;-54
2022/09/06 14:12:52;;;;;;;;;3.00;3.00;;;;;26.68;42.60;100769.22;5039376;28;45460;-49
2022/09/06 14:15:17;;;;;;;;;4.00;4.00;;;;;26.69;42.44;100770.91;5038966;28;45799;-51
2022/09/06 14:17:43;;;;;;;;;4.00;4.00;;;;;26.68;42.73;100761.25;5039339;28;45338;-53
2022/09/06 14:20:08;;;;;;;;;5.00;5.00;;;;;26.69;42.67;100770.91;5037519;28;45640;-52
2022/09/06 14:22:34;;;;;;;;;2.75;2.75;;;;;26.67;42.90;100765.75;5038238;28;46885;-48
2022/09/06 14:24:59;;;;;;;;;3.25;3.25;;;;;26.67;42.62;100763.09;5039834;28;45393;-48
2022/09/06 14:27:24;;;;;;;;;3.00;3.00;;;;;26.67;42.86;100759.56;5040819;28;45560;-48
2022/09/06 14:29:50;;;;;;;;;5.00;5.00;;;;;26.68;42.69;100758.59;5045901;28;45232;-46
2022/09/06 14:32:17;;;;;;;;;4.75;4.75;;;;;26.66;42.50;100757.88;5052809;28;47046;-48
2022/09/06 14:34:42;;;;;;;;;3.50;3.50;;;;;26.67;42.55;100756.91;5058675;28;44972;-49
2022/09/06 14:37:07;;;;;;;;;6.25;3.75;;;;;26.66;42.89;100756.06;5047123;28;45245;-50
2022/09/06 14:39:33;;;;;;;;;5.50;4.50;;;;;26.66;42.51;100740.13;5042751;28;45215;-48
2022/09/06 14:41:58;;;;;;;;;4.25;4.25;;;;;26.66;42.74;100736.59;5039308;28;45307;-46
2022/09/06 14:44:24;;;;;;;;;4.75;4.75;;;;;26.66;42.09;100733.94;5041140;28;45177;-48
2022/09/06 14:46:52;;;;;;;;;3.25;3.00;;;;;26.66;42.45;100726.81;5045291;28;45363;-48
2022/09/06 14:49:19;;;;;;;;;3.00;3.00;;;;;26.67;42.49;100722.34;5046359;28;46221;-47
2022/09/06 14:51:45;;;;;;;;;5.25;4.25;;;;;26.66;42.42;100724.16;5041766;28;46307;-48
2022/09/06 14:54:12;;;;;;;;;4.50;3.25;;;;;26.66;42.38;100718.00;5048976;28;45413;-49
2022/09/06 14:56:40;;;;;;;;;6.00;3.25;;;;;26.66;42.27;100715.34;5048481;28;45350;-52
2022/09/06 14:59:07;;;;;;;;;6.00;4.00;;;;;26.66;42.02;100720.66;5040797;28;45549;-49
2022/09/06 15:01:32;;;;;;;;;3.00;3.00;;;;;26.66;42.33;100718.84;5043563;28;45463;-54
2022/09/06 15:04:01;;;;;;;;;4.00;3.00;;;;;26.65;42.42;100706.53;5043379;28;45357;-49
2022/09/06 15:06:29;;;;;;;;;3.25;3.25;;;;;26.65;42.24;100698.56;5041237;28;45457;-49
2022/09/06 15:08:55;;;;;;;;;3.50;3.50;;;;;26.66;42.25;100691.41;5046040;28;45516;-48
2022/09/06 15:11:31;;;;;;;;;3.00;3.00;;;;;26.66;42.30;100696.72;5057616;28;45374;-50
2022/09/06 15:13:57;;;;;;;;;3.00;3.00;;;;;26.64;42.12;100693.34;5055190;28;44994;-51
2022/09/06 15:16:23;;;;;;;;;3.00;3.00;;;;;26.65;41.88;100693.25;5041372;28;45330;-53
2022/09/06 15:18:48;;;;;;;;;2.00;2.00;;;;;26.65;41.93;100689.72;5037710;28;45324;-55
2022/09/06 15:21:16;;;;;;;;;3.50;3.50;;;;;26.64;41.77;100693.34;5042644;28;46750;-55
2022/09/06 15:23:42;;;;;;;;;2.25;2.00;;;;;26.63;41.91;100694.31;5049934;28;45731;-47
2022/09/06 15:26:10;;;;;;;;;3.25;3.25;;;;;26.63;41.59;100687.22;5049630;28;45218;-49
2022/09/06 15:28:37;;;;;;;;;4.00;3.00;;;;;26.63;42.03;100687.22;5050588;28;44931;-49
2022/09/06 15:31:04;;;;;;;;;5.00;4.00;;;;;26.63;42.03;100687.22;5044629;28;45385;-50
2022/09/06 15:33:31;;;;;;;;;4.00;3.00;;;;;26.63;42.01;100687.22;5039885;28;45722;-47
2022/09/06 15:35:59;;;;;;;;;2.00;2.00;;;;;26.63;41.45;100679.22;5038144;28;45362;-53
2022/09/06 15:38:25;;;;;;;;;2.50;2.50;;;;;26.61;41.66;100667.88;5038627;28;45228;-50
2022/09/06 15:40:50;;;;;;;;;3.00;3.00;;;;;26.62;41.65;100669.56;5037892;28;46232;-48
2022/09/06 15:43:16;;;;;;;;;2.00;2.00;;;;;26.62;41.23;100663.41;5038288;28;45363;-49
2022/09/06 15:45:47;;;;;;;;;4.00;3.00;;;;;26.61;41.30;100670.53;5041983;28;45271;-49
2022/09/06 15:48:14;;;;;;;;;3.00;3.00;;;;;26.62;41.39;100674.88;5038881;28;45551;-47
2022/09/06 15:50:40;;;;;;;;;2.00;2.00;;;;;26.62;41.34;100664.25;5038932;28;46221;-51
2022/09/06 15:53:05;;;;;;;;;3.25;3.00;;;;;26.61;41.52;100661.72;5036750;28;45430;-47
2022/09/06 15:58:15;;;;;;;;;5.75;3.00;;;;;26.63;41.54;100667.75;5039432;28;45375;-46
2022/09/06 16:00:40;;;;;;;;;2.50;2.50;;;;;26.61;41.55;100672.38;5037378;28;46910;-47
2022/09/06 16:03:06;;;;;;;;;3.25;2.00;;;;;26.62;41.31;100664.25;5035482;28;45351;-52
2022/09/06 16:05:33;;;;;;;;;2.75;2.75;;;;;26.60;41.48;100655.56;5038152;28;45307;-48
2022/09/06 16:07:59;;;;;;;;;2.25;2.25;;;;;26.61;41.27;100661.72;5048894;28;45252;-54
2022/09/06 16:10:24;;;;;;;;;3.00;3.00;;;;;26.62;40.96;100660.75;5050287;28;46045;-50
2022/09/06 16:12:51;;;;;;;;;2.00;2.00;;;;;26.62;41.21;100652.78;5040604;28;45386;-52
2022/09/06 16:15:17;;;;;;;;;3.00;3.00;;;;;26.61;41.47;100643.13;5036446;28;45387;-52
2022/09/06 16:17:43;;;;;;;;;2.00;2.00;;;;;26.60;41.61;100647.59;5039017;28;45524;-54
2022/09/06 16:20:09;;;;;;;;;4.00;2.00;;;;;26.61;41.64;100633.31;5040161;28;46962;-52
2022/09/06 16:22:34;;;;;;;;;2.00;2.00;;;;;26.61;41.45;100630.66;5038800;28;45701;-54
2022/09/06 16:25:00;;;;;;;;;2.50;2.50;;;;;26.61;41.66;100621.88;5042820;28;45315;-49
2022/09/06 16:27:25;;;;;;;;;3.00;3.00;;;;;26.61;41.10;100619.22;5043361;28;45208;-48
2022/09/06 16:29:51;;;;;;;;;2.50;2.50;;;;;26.62;41.33;100610.25;5036794;28;47117;-49
2022/09/06 16:32:16;;;;;;;;;5.00;2.75;;;;;26.60;41.38;100607.72;5034954;28;45292;-51
2022/09/06 16:34:42;;;;;;;;;2.75;2.50;;;;;26.61;41.33;100601.44;5038128;28;45303;-49
2022/09/06 16:37:08;;;;;;;;;3.75;2.25;;;;;26.60;41.48;100596.25;5039492;28;45453;-50
2022/09/06 16:39:34;;;;;;;;;2.75;2.75;;;;;26.62;41.47;100602.28;5038499;28;46020;-46
2022/09/06 16:42:00;;;;;;;;;2.75;2.75;;;;;26.61;41.46;100604.09;5036047;28;45734;-47
2022/09/06 16:44:26;;;;;;;;;3.00;3.00;;;;;26.61;41.36;100603.25;5036812;28;45433;-48
2022/09/06 16:46:52;;;;;;;;;2.25;2.25;;;;;26.61;41.53;100611.22;5035386;28;45522;-53
2022/09/06 16:49:18;;;;;;;;;1.75;1.75;;;;;26.61;41.35;100601.44;5036005;28;45493;-51
2022/09/06 16:51:45;;;;;;;;;2.50;2.00;;;;;26.61;41.41;100598.78;5038560;28;45283;-47
2022/09/06 16:54:12;;;;;;;;;4.75;3.00;;;;;26.62;41.73;100604.94;5038908;28;45275;-49
2022/09/06 16:56:38;;;;;;;;;3.00;3.00;;;;;26.61;41.47;100600.59;5036561;28;45560;-48
2022/09/06 16:59:07;;;;;;;;;4.00;4.00;;;;;26.61;41.32;100600.59;5044022;28;46082;-47
2022/09/06 17:01:34;;;;;;;;;2.00;2.00;;;;;26.62;40.90;100607.59;5046080;28;45572;-51
2022/09/06 17:04:01;;;;;;;;;2.50;2.50;;;;;26.61;41.40;100604.09;5044522;28;45179;-50
2022/09/06 17:06:27;;;;;;;;;2.25;2.25;;;;;26.63;41.31;100609.25;5054019;28;45472;-53
2022/09/06 17:08:57;;;;;;;;;3.75;2.50;;;;;26.62;41.42;100608.44;5060783;28;46668;-49
2022/09/06 17:11:23;;;;;;;;;2.75;2.75;;;;;26.63;41.41;100606.59;5052666;28;45327;-47
2022/09/06 17:13:50;;;;;;;;;4.00;3.00;;;;;26.62;41.16;100615.56;5041332;28;45242;-50
2022/09/06 17:19:02;;;;;;;;;3.25;2.00;;;;;26.62;41.50;100631.53;5041978;28;45891;-50
2022/09/06 17:21:28;;;;;;;;;3.00;3.00;;;;;26.62;41.38;100626.22;5046072;28;45709;-47
2022/09/06 17:23:54;;;;;;;;;3.00;3.00;;;;;26.62;41.15;100624.38;5041020;28;45357;-51
2022/09/06 17:26:21;;;;;;;;;3.00;3.00;;;;;26.62;41.14;100624.38;5051543;28;45324;-50
2022/09/06 17:28:48;;;;;;;;;2.25;2.25;;;;;26.62;41.38;100627.03;5059773;28;45395;-52
2022/09/06 17:31:13;;;;;;;;;3.00;3.00;;;;;26.63;41.32;100619.91;5048264;28;44918;-55
2022/09/06 17:33:39;;;;;;;;;2.00;2.00;;;;;26.62;41.58;100610.25;5040344;28;45399;-52
2022/09/06 17:36:20;;;;;;;;;4.00;4.00;;;;;26.62;40.98;100612.91;5047866;28;45230;-54
2022/09/06 17:38:52;;;;;;;;;2.25;2.25;;;;;26.61;41.30;100605.91;5058430;28;46285;-49
2022/09/06 17:41:23;;;;;;;;;6.00;4.00;;;;;26.62;41.45;100596.97;5046532;28;45334;-51
2022/09/06 17:43:49;;;;;;;;;4.25;3.00;;;;;26.62;41.07;100599.63;5058401;28;45224;-46
2022/09/06 17:46:15;;;;;;;;;3.00;3.00;;;;;26.61;41.24;100597.94;5049587;28;45508;-51
2022/09/06 17:48:40;;;;;;;;;3.00;3.00;;;;;26.61;41.45;100608.56;5048772;28;46132;-53
2022/09/06 17:51:07;;;;;;;;;3.25;3.25;;;;;26.61;41.23;100614.72;5043325;28;45260;-49
2022/09/06 17:53:33;;;;;;;;;5.00;3.00;;;;;26.61;41.59;100609.41;5044524;28;45369;-52
2022/09/06 17:56:06;;;;;;;;;3.50;3.50;;;;;26.62;41.39;100620.91;5042340;28;45444;-53
2022/09/06 17:58:31;;;;;;;;;4.00;4.00;;;;;26.61;41.46;100621.88;5042211;28;45456;-50
2022/09/06 18:01:01;;;;;;;;;4.00;4.00;;;;;26.62;41.28;100620.91;5038423;28;45562;-51
2022/09/06 18:03:27;;;;;;;;;5.25;3.50;;;;;26.60;41.58;100618.34;5040659;28;45237;-47
2022/09/06 18:05:52;;;;;;;;;3.75;3.75;;;;;26.60;41.24;100628.16;5040303;28;45447;-51
2022/09/06 18:08:20;;;;;;;;;3.50;3.50;;;;;26.61;41.51;100627.19;5039364;28;45417;-52
2022/09/06 18:10:45;;;;;;;;;5.00;3.25;;;;;26.60;41.11;100639.63;5039626;28;45608;-49
2022/09/06 18:13:11;;;;;;;;;4.00;4.00;;;;;26.60;41.11;100639.63;5039209;28;45252;-52
2022/09/06 18:15:39;;;;;;;;;5.00;4.00;;;;;26.61;41.41;100645.78;5040961;28;45535;-52
2022/09/06 18:18:05;;;;;;;;;4.00;4.00;;;;;26.60;41.64;100642.28;5040272;28;47286;-50
2022/09/06 18:20:30;;;;;;;;;4.75;4.00;;;;;26.61;41.06;100651.09;5038649;28;45546;-49
2022/09/06 18:22:55;;;;;;;;;5.00;4.50;;;;;26.60;41.59;100654.72;5047817;28;45348;-49
2022/09/06 18:25:21;;;;;;;;;5.25;4.00;;;;;26.61;41.24;100659.06;5046433;28;45311;-47
2022/09/06 18:27:47;;;;;;;;;5.25;4.00;;;;;26.61;41.51;100670.53;5040671;28;46033;-49
2022/09/06 18:30:12;;;;;;;;;3.00;3.00;;;;;26.61;41.66;100669.72;5039173;28;45804;-54
2022/09/06 18:32:39;;;;;;;;;4.25;4.25;;;;;26.60;41.58;100668.03;5044206;28;45228;-49
2022/09/06 18:35:05;;;;;;;;;4.00;4.00;;;;;26.59;41.37;100672.47;5046275;28;45181;-49
2022/09/06 18:37:34;;;;;;;;;4.50;4.50;;;;;26.60;41.55;100670.69;5055993;28;45766;-50
2022/09/06 18:40:00;;;;;;;;;5.00;4.00;;;;;26.60;41.46;100676.81;5055728;28;45021;-50
2022/09/06 18:42:26;;;;;;;;;3.00;3.00;;;;;26.60;41.51;100683.97;5053767;28;45340;-51
2022/09/06 18:44:51;;;;;;;;;4.00;4.00;;;;;26.60;41.45;100681.31;5058808;28;45445;-49
2022/09/06 18:47:17;;;;;;;;;6.00;4.67;;;;;26.59;41.47;100696.41;5055735;28;67393;-54
2022/09/06 18:49:42;;;;;;;;;4.25;3.00;;;;;26.59;41.59;100690.25;5055621;28;45406;-53
2022/09/06 18:52:08;;;;;;;;;6.25;5.00;;;;;26.59;41.34;100695.56;5043896;28;45185;-56
2022/09/06 18:54:33;;;;;;;;;6.00;4.25;;;;;26.60;41.02;100699.91;5044167;28;45295;-50
2022/09/06 18:56:59;;;;;;;;;6.00;5.00;;;;;26.59;41.54;100703.53;5039413;28;47320;-51
2022/09/06 18:59:24;;;;;;;;;5.00;3.75;;;;;26.57;41.37;100698.34;5040023;28;45235;-53
2022/09/06 19:01:50;;;;;;;;;3.00;3.00;;;;;26.59;41.27;100703.53;5044882;28;45201;-50
2022/09/06 19:04:15;;;;;;;;;3.50;3.50;;;;;26.58;41.18;100710.66;5047108;28;45223;-49
2022/09/06 19:06:42;;;;;;;;;5.00;4.00;;;;;26.59;41.17;100708.84;5040660;28;47565;-48
2022/09/06 19:09:10;;;;;;;;;3.50;3.50;;;;;26.58;41.54;100709.81;5045568;28;46176;-48
2022/09/06 19:11:36;;;;;;;;;5.25;3.25;;;;;26.58;41.11;100721.28;5042933;28;45401;-49
2022/09/06 19:14:03;;;;;;;;;2.25;2.25;;;;;26.57;41.49;100724.91;5044315;28;44904;-51
2022/09/06 19:16:30;;;;;;;;;5.75;4.50;;;;;26.57;41.38;100727.56;5040342;28;46563;-46
2022/09/06 19:19:01;;;;;;;;;3.00;3.00;;;;;26.57;41.54;100748.00;5053742;28;45167;-50
2022/09/06 19:21:26;;;;;;;;;4.00;4.00;;;;;26.57;41.34;100756.81;5047796;28;45299;-47
2022/09/06 19:24:00;;;;;;;;;1.00;1.00;;;;;26.57;41.41;100772.75;5044026;28;45212;-48
2022/09/06 19:26:28;;;;;;;;;4.00;4.00;;;;;26.58;41.10;100784.25;5048099;28;45391;-49
2022/09/06 19:28:59;;;;;;;;;3.50;3.50;;;;;26.58;41.23;100792.22;5047150;28;45748;-46
2022/09/06 19:31:27;;;;;;;;;3.75;2.75;;;;;26.57;41.40;100804.66;5040931;28;45399;-50
2022/09/06 19:33:53;;;;;;;;;6.25;4.50;;;;;26.58;41.49;100819.63;5041349;28;45242;-47
2022/09/06 19:36:20;;;;;;;;;5.00;3.50;;;;;26.57;41.46;100817.13;5041140;28;45279;-53
2022/09/06 19:38:46;;;;;;;;;9.50;4.00;;;;;26.57;41.05;100822.44;5039679;28;45737;-53
2022/09/06 19:41:14;;;;;;;;;4.00;4.00;;;;;26.55;41.60;100844.66;5041863;28;45490;-53
2022/09/06 19:43:41;;;;;;;;;3.75;3.75;;;;;26.57;41.67;100838.38;5045665;28;45585;-56
2022/09/06 19:46:09;;;;;;;;;2.25;2.25;;;;;26.54;41.58;100842.97;5040052;28;47009;-48
2022/09/06 19:48:37;;;;;;;;;4.75;4.00;;;;;26.53;41.45;100857.22;5038529;28;45610;-53
2022/09/06 19:51:06;;;;;;;;;3.50;3.00;;;;;26.53;41.54;100861.72;5045323;28;45361;-48
2022/09/06 19:53:33;;;;;;;;;2.25;2.25;;;;;26.53;41.57;100867.84;5057524;28;45235;-53
2022/09/06 19:55:59;;;;;;;;;3.00;2.00;;;;;26.52;41.77;100870.66;5041864;28;45536;-50
2022/09/06 19:58:24;;;;;;;;;2.00;2.00;;;;;26.52;41.69;100873.31;5037897;28;45461;-49
2022/09/06 20:00:51;;;;;;;;;2.50;1.00;;;;;26.50;41.83;100878.75;5036408;28;45375;-52
2022/09/06 20:03:17;;;;;;;;;2.25;1.00;;;;;26.50;41.90;100865.47;5040561;28;45361;-48
2022/09/06 20:05:42;;;;;;;;;2.50;1.50;;;;;26.50;41.65;100865.47;5043600;28;46580;-48
2022/09/06 20:08:08;;;;;;;;;2.75;1.25;;;;;26.49;42.07;100866.44;5038652;28;45489;-50
2022/09/06 20:10:33;;;;;;;;;2.00;2.00;;;;;26.49;41.67;100861.13;5037829;28;45434;-46
2022/09/06 20:12:59;;;;;;;;;1.50;1.00;;;;;26.48;42.04;100859.44;5037649;28;45343;-49
2022/09/06 20:15:25;;;;;;;;;2.00;2.00;;;;;26.48;42.40;100854.09;5036123;28;47094;-52
2022/09/06 20:17:51;;;;;;;;;1.00;1.00;;;;;26.47;41.83;100841.78;5037965;28;45448;-49